DEZJY EDLW-

Flight info

Callsign DEZJY
Flight time N/A
Altitude
Route
Aircraft DA42

Departure

Time 2026-05-04 16:33
Airport Dortmund Airport (EDLW)

Arrival

Time N/A
Airport -
Time Latitude Longitude Altitude Speed Heading
2026-05-04 16:22 51.51162 7.60335 443 ft 0 kts 106°
2026-05-04 16:22 51.51158 7.60172 441 ft 11 kts 311°
2026-05-04 16:23 51.51303 7.60467 441 ft 19 kts 60°
2026-05-04 16:24 51.51631 7.61190 427 ft 23 kts 60°
2026-05-04 16:25 51.51789 7.61642 421 ft 24 kts 61°
2026-05-04 16:26 51.52084 7.62401 411 ft 2 kts 341°
2026-05-04 16:26 51.52091 7.62397 411 ft 6 kts 338°
2026-05-04 16:27 51.52118 7.62375 412 ft 0 kts 327°
2026-05-04 16:28 51.52134 7.62360 413 ft 0 kts 331°
2026-05-04 16:31 51.52192 7.62243 413 ft 0 kts 249°
2026-05-04 16:32 51.52026 7.61771 411 ft 74 kts 240°
2026-05-04 16:33 51.51387 7.59903 793 ft 108 kts 258°
2026-05-04 16:33 51.52629 7.58416 1134 ft 133 kts 360°
2026-05-04 16:34 51.53855 7.60284 1291 ft 136 kts 58°
2026-05-04 16:34 51.54325 7.61614 1303 ft 139 kts 60°
2026-05-04 16:35 51.55658 7.64984 1262 ft 105 kts 54°
2026-05-04 16:35 51.55651 7.67685 934 ft 105 kts 153°
2026-05-04 16:36 51.55052 7.68186 943 ft 96 kts 154°
2026-05-04 16:36 51.54079 7.67708 1038 ft 89 kts 245°
2026-05-04 16:37 51.53469 7.65927 1048 ft 76 kts 249°
2026-05-04 16:37 51.53204 7.65184 1064 ft 75 kts 262°
2026-05-04 16:37 51.52556 7.63293 600 ft 92 kts 239°
2026-05-04 16:38 51.52009 7.61723 411 ft 58 kts 241°
2026-05-04 16:39 51.52039 7.59360 867 ft 113 kts 328°
2026-05-04 16:39 51.53335 7.59998 1348 ft 133 kts 60°
2026-05-04 16:40 51.54261 7.62715 1287 ft 142 kts 58°
2026-05-04 16:40 51.53680 7.64782 934 ft 99 kts 85°
2026-05-04 16:41 51.54233 7.64245 1074 ft 99 kts 214°
2026-05-04 16:41 51.53997 7.64039 1148 ft 113 kts 141°
2026-05-04 16:42 51.53922 7.64699 1221 ft 121 kts 60°
2026-05-04 16:43 51.53951 7.64282 1268 ft 117 kts 117°
2026-05-04 16:43 51.54340 7.64110 1367 ft 111 kts 202°
2026-05-04 16:43 51.53967 7.64889 1327 ft 122 kts 46°
2026-05-04 16:44 51.54568 7.64917 1171 ft 126 kts 279°
2026-05-04 16:45 51.52842 7.63805 641 ft 123 kts 223°
2026-05-04 16:46 51.51892 7.61391 413 ft 63 kts 242°
2026-05-04 16:46 51.51606 7.60603 408 ft 16 kts 190°